createdAt,value
2022-12-18T00:01:49.373Z,87.50
2022-12-18T00:04:25.282Z,82.33
2022-12-18T00:06:52.054Z,80.07
2022-12-18T00:09:18.650Z,86.93
2022-12-18T00:11:45.301Z,71.90
2022-12-18T00:14:13.843Z,80.03
2022-12-18T00:16:40.996Z,86.43
2022-12-18T00:19:08.354Z,71.33
2022-12-18T00:21:35.065Z,85.77
2022-12-18T00:24:01.799Z,75.93
2022-12-18T00:26:33.074Z,64.93
2022-12-18T00:29:14.715Z,68.50
2022-12-18T00:31:42.592Z,79.73
2022-12-18T00:34:12.588Z,80.97
2022-12-18T00:36:41.877Z,75.30
2022-12-18T00:39:10.409Z,63.03
2022-12-18T00:41:55.501Z,60.77
2022-12-18T00:44:22.092Z,51.50
2022-12-18T00:46:49.227Z,69.37
2022-12-18T00:49:18.633Z,73.90
2022-12-18T00:51:46.328Z,65.57
2022-12-18T00:54:13.454Z,68.20
2022-12-18T00:56:48.296Z,69.40
2022-12-18T00:59:17.164Z,63.30
2022-12-18T01:01:43.943Z,65.53
2022-12-18T01:04:10.635Z,81.07
2022-12-18T01:06:37.206Z,75.93
2022-12-18T01:09:04.097Z,64.73
2022-12-18T01:11:31.365Z,73.73
2022-12-18T01:14:01.000Z,81.50
2022-12-18T01:16:27.996Z,70.40
2022-12-18T01:18:55.747Z,76.87
2022-12-18T01:21:23.844Z,63.53
2022-12-18T01:23:55.273Z,71.27
2022-12-18T01:26:22.061Z,77.30
2022-12-18T01:28:48.847Z,76.40
2022-12-18T01:31:16.903Z,75.37
2022-12-18T01:33:44.138Z,62.60
2022-12-18T01:36:25.852Z,71.70
2022-12-18T01:38:53.961Z,67.43
2022-12-18T01:41:26.407Z,66.40
2022-12-18T01:43:58.415Z,64.00
2022-12-18T01:46:26.724Z,65.30
2022-12-18T01:49:01.987Z,68.03
2022-12-18T01:51:31.253Z,57.00
2022-12-18T01:53:58.652Z,60.07
2022-12-18T01:56:25.235Z,56.33
2022-12-18T01:58:58.433Z,71.10
2022-12-18T02:01:26.259Z,62.80
2022-12-18T02:03:53.376Z,67.50
2022-12-18T02:06:39.381Z,59.03
2022-12-18T02:09:21.449Z,63.33
2022-12-18T02:12:11.622Z,64.03
2022-12-18T02:15:05.772Z,65.03
2022-12-18T02:17:41.933Z,62.37
2022-12-18T02:20:20.842Z,66.17
2022-12-18T02:23:21.158Z,58.57
2022-12-18T02:25:59.814Z,61.40
2022-12-18T02:28:32.783Z,61.43
2022-12-18T02:31:03.798Z,60.30
2022-12-18T02:33:32.174Z,59.80
2022-12-18T02:36:00.875Z,52.37
2022-12-18T02:38:29.740Z,54.73
2022-12-18T02:40:57.737Z,59.97
2022-12-18T02:43:24.359Z,64.63
2022-12-18T02:45:56.476Z,54.13
2022-12-18T02:48:34.751Z,61.70
2022-12-18T02:51:23.618Z,51.63
2022-12-18T02:54:07.441Z,63.03
2022-12-18T02:56:45.117Z,63.13
2022-12-18T02:59:23.029Z,57.30
2022-12-18T03:02:24.731Z,60.63
2022-12-18T03:05:05.320Z,52.60
2022-12-18T03:07:40.078Z,51.13
2022-12-18T03:10:10.303Z,60.00
2022-12-18T03:12:41.067Z,59.83
2022-12-18T03:15:29.697Z,58.40
2022-12-18T03:18:07.568Z,62.80
2022-12-18T03:20:36.416Z,56.63
2022-12-18T03:23:11.742Z,54.87
2022-12-18T03:25:41.795Z,63.47
2022-12-18T03:28:13.703Z,67.03
2022-12-18T03:30:42.457Z,56.17
2022-12-18T03:33:20.912Z,66.00
2022-12-18T03:35:47.942Z,57.23
2022-12-18T03:38:15.120Z,55.13
2022-12-18T03:40:56.835Z,56.73
2022-12-18T03:43:58.175Z,44.93
2022-12-18T03:46:29.545Z,45.30
2022-12-18T03:49:26.213Z,48.90
2022-12-18T03:52:06.445Z,53.47
2022-12-18T03:54:36.091Z,55.27
2022-12-18T03:57:09.751Z,57.37
2022-12-18T03:59:38.462Z,51.73
2022-12-18T04:02:07.753Z,57.30
2022-12-18T04:04:36.763Z,53.53
2022-12-18T04:07:04.135Z,45.83
2022-12-18T04:09:32.800Z,54.30
2022-12-18T04:11:59.344Z,54.80
2022-12-18T04:14:25.958Z,49.80
2022-12-18T04:16:52.526Z,55.47
2022-12-18T04:19:19.145Z,54.97
2022-12-18T04:21:45.704Z,53.70
2022-12-18T04:24:12.277Z,55.90
2022-12-18T04:26:39.248Z,53.67
2022-12-18T04:29:05.802Z,47.57
2022-12-18T04:31:32.357Z,49.93
2022-12-18T04:33:58.907Z,51.00
2022-12-18T04:36:28.480Z,50.20
2022-12-18T04:38:55.055Z,56.77
2022-12-18T04:41:21.990Z,48.50
2022-12-18T04:43:48.560Z,45.63
2022-12-18T04:46:15.293Z,57.50
2022-12-18T04:48:42.123Z,50.33
2022-12-18T04:51:08.774Z,45.30
2022-12-18T04:53:35.409Z,52.13
2022-12-18T04:56:13.955Z,45.83
2022-12-18T04:58:42.336Z,48.07
2022-12-18T05:01:09.779Z,45.10
2022-12-18T05:03:37.657Z,45.70
2022-12-18T05:06:06.037Z,47.83
2022-12-18T05:08:33.248Z,52.40
2022-12-18T05:11:01.247Z,44.67
2022-12-18T05:13:29.337Z,42.90
2022-12-18T05:15:56.302Z,46.63
2022-12-18T05:18:24.515Z,50.43
2022-12-18T05:20:51.993Z,45.53
2022-12-18T05:23:19.102Z,60.57
2022-12-18T05:25:57.471Z,49.43
2022-12-18T05:28:25.522Z,47.03
2022-12-18T05:30:54.615Z,45.77
2022-12-18T05:33:23.085Z,48.27
2022-12-18T05:35:56.767Z,48.83
2022-12-18T05:38:25.318Z,47.80
2022-12-18T05:40:52.209Z,44.00
2022-12-18T05:43:21.670Z,45.50
2022-12-18T05:45:49.403Z,41.33
2022-12-18T05:48:16.870Z,45.47
2022-12-18T05:50:48.403Z,39.53
2022-12-18T05:53:17.708Z,43.63
2022-12-18T05:55:44.981Z,46.27
2022-12-18T05:58:13.804Z,43.40
2022-12-18T06:00:43.285Z,39.30
2022-12-18T06:03:11.306Z,38.30
2022-12-18T06:05:39.999Z,39.47
2022-12-18T06:08:06.897Z,39.90
2022-12-18T06:10:33.580Z,38.13
2022-12-18T06:13:00.699Z,37.40
2022-12-18T06:15:27.405Z,36.97
2022-12-18T06:17:53.938Z,37.13
2022-12-18T06:20:20.830Z,42.83
2022-12-18T06:22:47.413Z,46.17
2022-12-18T06:25:13.981Z,43.20
2022-12-18T06:27:40.690Z,33.33
2022-12-18T06:30:09.681Z,37.67
2022-12-18T06:32:36.205Z,39.07
2022-12-18T06:35:02.790Z,38.87
2022-12-18T06:37:29.353Z,41.30
2022-12-18T06:39:57.428Z,44.80
2022-12-18T06:42:24.812Z,31.90
2022-12-18T06:44:51.775Z,34.20
2022-12-18T06:47:18.884Z,36.23
2022-12-18T06:49:45.463Z,34.67
2022-12-18T06:52:12.024Z,31.20
2022-12-18T06:54:38.552Z,31.00
2022-12-18T06:57:05.133Z,35.67
2022-12-18T06:59:31.693Z,30.13
2022-12-18T07:01:58.348Z,26.50
2022-12-18T07:04:32.704Z,29.50
2022-12-18T07:06:59.297Z,31.47
2022-12-18T07:09:26.196Z,33.23
2022-12-18T07:11:53.420Z,30.90
2022-12-18T07:14:20.124Z,31.70
2022-12-18T07:16:46.767Z,33.73
2022-12-18T07:19:13.313Z,30.33
2022-12-18T07:21:39.865Z,32.40
2022-12-18T07:24:06.899Z,30.30
2022-12-18T07:26:33.569Z,30.20
2022-12-18T07:29:00.124Z,32.00
2022-12-18T07:31:27.776Z,30.50
2022-12-18T07:33:54.492Z,35.50
2022-12-18T07:36:21.236Z,36.43
2022-12-18T07:38:49.209Z,34.87
2022-12-18T07:41:15.839Z,24.30
2022-12-18T07:43:43.318Z,34.10
2022-12-18T07:46:13.233Z,35.13
2022-12-18T07:48:41.136Z,33.63
2022-12-18T07:51:08.916Z,36.23
2022-12-18T07:53:36.921Z,39.87
2022-12-18T07:58:54.307Z,49.33
2022-12-18T08:01:21.338Z,54.57
2022-12-18T08:03:48.092Z,48.43
2022-12-18T08:06:14.853Z,44.07
2022-12-18T08:08:43.077Z,41.33
2022-12-18T08:11:09.723Z,33.70
2022-12-18T08:13:36.453Z,40.53
2022-12-18T08:16:08.094Z,44.80
2022-12-18T08:18:36.263Z,41.50
2022-12-18T08:21:10.573Z,49.93
2022-12-18T08:23:42.385Z,44.80
2022-12-18T08:26:11.098Z,39.63
2022-12-18T08:28:37.761Z,36.80
2022-12-18T08:31:04.842Z,40.47
2022-12-18T08:33:31.620Z,32.10
2022-12-18T08:35:59.674Z,35.03
2022-12-18T08:38:26.262Z,31.67
2022-12-18T08:41:10.018Z,37.77
2022-12-18T08:43:55.252Z,36.13
2022-12-18T08:46:23.575Z,33.80
2022-12-18T08:48:52.682Z,33.13
2022-12-18T08:51:20.612Z,39.33
2022-12-18T08:53:47.997Z,33.33
2022-12-18T08:56:15.552Z,36.03
2022-12-18T08:58:42.601Z,31.53
2022-12-18T09:01:11.928Z,41.70
2022-12-18T09:03:39.565Z,34.87
2022-12-18T09:06:06.833Z,33.93
2022-12-18T09:08:33.474Z,41.87
2022-12-18T09:11:00.045Z,41.20
2022-12-18T09:13:26.680Z,42.03
2022-12-18T09:15:55.350Z,31.33
2022-12-18T09:18:23.855Z,44.80
2022-12-18T09:20:52.670Z,58.77
2022-12-18T09:23:19.369Z,60.87
2022-12-18T09:25:45.943Z,45.03
2022-12-18T09:28:15.464Z,44.87
2022-12-18T09:30:45.543Z,42.20
2022-12-18T09:33:12.371Z,45.97
2022-12-18T09:35:39.985Z,39.77
2022-12-18T09:38:07.239Z,37.03
2022-12-18T09:40:46.026Z,40.63
2022-12-18T09:43:23.735Z,32.33
2022-12-18T09:45:58.132Z,30.53
2022-12-18T09:48:31.697Z,35.47
2022-12-18T09:51:04.604Z,34.83
2022-12-18T09:53:36.052Z,39.43
2022-12-18T09:56:05.484Z,36.00
2022-12-18T09:58:56.556Z,33.17
2022-12-18T10:01:24.088Z,28.47
2022-12-18T10:03:52.592Z,27.87
2022-12-18T10:06:39.163Z,28.67
2022-12-18T10:09:29.029Z,28.60
2022-12-18T10:12:21.598Z,27.40
2022-12-18T10:15:03.406Z,24.43
2022-12-18T10:17:48.595Z,28.37
2022-12-18T10:20:25.260Z,26.57
2022-12-18T10:22:56.571Z,27.37
2022-12-18T10:25:42.824Z,21.80
2022-12-18T10:28:17.395Z,29.30
2022-12-18T10:30:44.871Z,25.87
2022-12-18T10:33:23.711Z,24.40
2022-12-18T10:35:54.052Z,30.70
2022-12-18T10:38:22.731Z,22.23
2022-12-18T10:40:57.437Z,20.93
2022-12-18T10:43:30.961Z,22.13
2022-12-18T10:46:08.864Z,25.80
2022-12-18T10:48:52.929Z,21.30
2022-12-18T10:51:31.487Z,25.93
2022-12-18T10:54:02.215Z,24.90
2022-12-18T10:56:31.663Z,29.93
2022-12-18T10:59:07.410Z,24.10
2022-12-18T11:02:24.693Z,28.13
2022-12-18T11:04:52.911Z,30.30
2022-12-18T11:07:19.632Z,28.93
2022-12-18T11:10:01.224Z,15.65
2022-12-18T11:12:29.512Z,17.60
2022-12-18T11:14:58.548Z,24.90
2022-12-18T11:17:34.391Z,28.97
2022-12-18T11:20:04.686Z,27.27
2022-12-18T11:22:39.056Z,25.00
2022-12-18T11:28:02.415Z,24.30
2022-12-18T11:30:38.586Z,26.83
2022-12-18T11:33:13.996Z,15.50
2022-12-18T11:35:43.882Z,19.90
2022-12-18T11:38:24.976Z,15.93
2022-12-18T11:41:06.586Z,17.17
2022-12-18T11:43:41.523Z,16.20
2022-12-18T11:46:30.542Z,17.30
2022-12-18T11:49:16.235Z,15.73
2022-12-18T11:51:48.780Z,17.67
2022-12-18T11:54:16.744Z,19.80
2022-12-18T11:56:56.381Z,16.43
2022-12-18T11:59:26.803Z,18.60
2022-12-18T12:02:01.048Z,17.13
2022-12-18T12:05:02.101Z,19.57
2022-12-18T12:07:35.768Z,24.00
2022-12-18T12:10:24.864Z,17.10
2022-12-18T12:13:10.999Z,22.30
2022-12-18T12:15:46.496Z,19.40
2022-12-18T12:18:34.836Z,26.60
2022-12-18T12:21:14.664Z,20.83
2022-12-18T12:24:07.205Z,22.83
2022-12-18T12:26:46.253Z,23.93
2022-12-18T12:29:39.970Z,21.97
2022-12-18T12:32:25.107Z,21.10
2022-12-18T12:35:04.752Z,18.00
2022-12-18T12:37:57.757Z,20.70
2022-12-18T12:40:51.335Z,16.17
2022-12-18T12:43:22.099Z,15.30
2022-12-18T12:46:02.844Z,14.80
2022-12-18T12:48:43.782Z,17.70
2022-12-18T12:51:24.747Z,17.53
2022-12-18T12:53:53.894Z,14.80
2022-12-18T12:56:22.152Z,28.90
2022-12-18T12:59:19.801Z,34.50
2022-12-18T13:02:13.918Z,17.50
2022-12-18T13:04:49.805Z,16.60
2022-12-18T13:07:28.745Z,17.70
2022-12-18T13:10:20.600Z,18.97
2022-12-18T13:12:59.315Z,18.10
2022-12-18T13:15:37.592Z,20.17
2022-12-18T13:18:10.008Z,16.40
2022-12-18T13:20:42.543Z,16.07
2022-12-18T13:23:40.805Z,18.87
2022-12-18T13:26:08.877Z,17.70
2022-12-18T13:28:47.701Z,16.33
2022-12-18T13:31:15.478Z,20.40
2022-12-18T13:34:09.390Z,21.17
2022-12-18T13:36:33.233Z,23.50
2022-12-18T13:39:18.443Z,19.20
2022-12-18T13:41:51.393Z,15.33
2022-12-18T13:44:40.651Z,18.13
2022-12-18T13:47:38.354Z,19.53
2022-12-18T13:50:23.728Z,16.47
2022-12-18T13:52:51.991Z,19.20
2022-12-18T13:55:21.576Z,19.47
2022-12-18T13:57:48.201Z,15.93
2022-12-18T14:00:31.490Z,26.03
2022-12-18T14:02:59.594Z,17.83
2022-12-18T14:05:32.131Z,19.13
2022-12-18T14:08:06.818Z,19.03
2022-12-18T14:10:48.299Z,14.70
2022-12-18T14:13:32.228Z,19.43
2022-12-18T14:16:01.546Z,16.63
2022-12-18T14:18:34.371Z,17.10
2022-12-18T14:21:03.106Z,17.23
2022-12-18T14:23:35.659Z,16.13
2022-12-18T14:26:20.771Z,16.60
2022-12-18T14:28:47.984Z,15.90
2022-12-18T14:31:29.008Z,18.00
2022-12-18T14:33:55.684Z,18.07
2022-12-18T14:36:27.531Z,15.63
2022-12-18T14:38:56.381Z,15.00
2022-12-18T14:41:24.634Z,20.00
2022-12-18T14:43:53.701Z,20.70
2022-12-18T14:46:36.348Z,17.83
2022-12-18T14:49:22.357Z,14.90
2022-12-18T14:51:55.397Z,19.80
2022-12-18T14:54:23.533Z,18.57
2022-12-18T14:56:57.088Z,20.67
2022-12-18T14:59:26.068Z,17.70
2022-12-18T15:02:25.003Z,20.40
2022-12-18T15:05:19.610Z,19.10
2022-12-18T15:07:51.478Z,84.40
2022-12-18T15:10:19.393Z,46.47
2022-12-18T15:13:10.948Z,57.87
2022-12-18T15:15:37.472Z,75.43
2022-12-18T15:18:08.399Z,99.20
2022-12-18T15:20:42.707Z,95.70
2022-12-18T15:23:44.737Z,30.80
2022-12-18T15:26:13.930Z,39.53
2022-12-18T15:28:49.483Z,34.00
2022-12-18T15:31:17.864Z,35.33
2022-12-18T15:33:53.878Z,26.43
2022-12-18T15:36:26.490Z,21.97
2022-12-18T15:38:55.505Z,40.80
2022-12-18T15:41:25.297Z,45.03
2022-12-18T15:43:54.665Z,26.10
2022-12-18T15:46:23.435Z,28.33
2022-12-18T15:48:55.524Z,28.07
2022-12-18T15:51:39.024Z,30.17
2022-12-18T15:54:10.321Z,27.23
2022-12-18T15:56:55.803Z,30.00
2022-12-18T15:59:23.870Z,29.47
2022-12-18T16:01:53.818Z,30.53
2022-12-18T16:04:22.103Z,30.00
2022-12-18T16:07:14.739Z,32.37
2022-12-18T16:09:39.687Z,29.87
2022-12-18T16:12:07.431Z,32.97
2022-12-18T16:14:34.128Z,34.77
2022-12-18T16:17:06.380Z,33.60
2022-12-18T16:19:32.996Z,33.93
2022-12-18T16:21:59.873Z,34.70
2022-12-18T16:24:28.913Z,42.20
2022-12-18T16:26:58.617Z,32.40
2022-12-18T16:29:28.015Z,44.37
2022-12-18T16:31:56.098Z,55.50
2022-12-18T16:34:31.401Z,43.93
2022-12-18T16:37:05.131Z,37.00
2022-12-18T16:39:34.159Z,26.07
2022-12-18T16:42:06.341Z,30.10
2022-12-18T16:44:34.266Z,50.77
2022-12-18T16:47:02.786Z,34.80
2022-12-18T16:49:30.106Z,52.60
2022-12-18T16:51:57.041Z,35.23
2022-12-18T16:54:24.810Z,42.23
2022-12-18T16:56:52.375Z,40.70
2022-12-18T16:59:22.917Z,49.97
2022-12-18T17:01:51.213Z,39.60
2022-12-18T17:04:18.552Z,37.63
2022-12-18T17:06:51.635Z,31.33
2022-12-18T17:09:25.434Z,51.60
2022-12-18T17:11:53.227Z,46.33
2022-12-18T17:14:23.324Z,54.80
2022-12-18T17:17:07.253Z,39.90
2022-12-18T17:19:39.119Z,37.23
2022-12-18T17:22:11.141Z,39.03
2022-12-18T17:24:38.593Z,48.47
2022-12-18T17:27:05.745Z,26.87
2022-12-18T17:29:32.339Z,27.97
2022-12-18T17:32:00.479Z,32.30
2022-12-18T17:34:27.715Z,31.47
2022-12-18T17:36:55.080Z,27.20
2022-12-18T17:39:21.768Z,32.83
2022-12-18T17:41:48.970Z,29.87
2022-12-18T17:44:17.045Z,30.07
2022-12-18T17:46:44.443Z,29.93
2022-12-18T17:49:11.651Z,29.00
2022-12-18T17:51:38.621Z,30.07
2022-12-18T17:54:05.491Z,28.47
2022-12-18T17:56:32.806Z,27.13
2022-12-18T17:59:00.020Z,28.23
2022-12-18T18:01:27.728Z,24.90
2022-12-18T18:03:57.912Z,27.90
2022-12-18T18:06:25.711Z,24.37
2022-12-18T18:08:53.529Z,28.93
2022-12-18T18:11:40.149Z,33.47
2022-12-18T18:14:12.529Z,25.30
2022-12-18T18:16:44.393Z,26.37
2022-12-18T18:19:17.216Z,31.07
2022-12-18T18:21:46.987Z,23.20
2022-12-18T18:24:17.369Z,27.73
2022-12-18T18:26:47.660Z,24.03
2022-12-18T18:29:18.367Z,28.57
2022-12-18T18:31:45.664Z,26.33
2022-12-18T18:34:18.595Z,27.80
2022-12-18T18:36:48.769Z,22.90
2022-12-18T18:39:15.337Z,26.47
2022-12-18T18:41:48.317Z,31.60
2022-12-18T18:44:16.304Z,31.93
2022-12-18T18:46:42.960Z,36.60
2022-12-18T18:49:10.566Z,31.27
2022-12-18T18:51:37.228Z,34.57
2022-12-18T18:54:06.911Z,29.53
2022-12-18T18:57:11.980Z,29.33
2022-12-18T18:59:31.652Z,27.73
2022-12-18T19:02:04.184Z,26.90
2022-12-18T19:04:37.821Z,26.80
2022-12-18T19:07:29.427Z,27.43
2022-12-18T19:10:03.960Z,34.67
2022-12-18T19:12:51.051Z,34.73
2022-12-18T19:15:17.631Z,30.27
2022-12-18T19:17:45.999Z,31.47
2022-12-18T19:20:17.765Z,27.90
2022-12-18T19:22:44.801Z,35.60
2022-12-18T19:25:22.322Z,39.13
2022-12-18T19:27:49.526Z,44.20
2022-12-18T19:30:19.999Z,35.93
2022-12-18T19:32:46.576Z,31.60
2022-12-18T19:35:16.537Z,36.63
2022-12-18T19:38:29.823Z,38.90
2022-12-18T19:41:08.769Z,35.23
2022-12-18T19:43:40.510Z,36.73
2022-12-18T19:46:12.412Z,40.30
2022-12-18T19:48:40.016Z,39.30
2022-12-18T19:51:10.673Z,40.07
2022-12-18T19:53:37.280Z,33.50
2022-12-18T19:56:08.244Z,37.97
2022-12-18T19:58:35.470Z,33.70
2022-12-18T20:01:02.394Z,38.97
2022-12-18T20:03:32.605Z,39.67
2022-12-18T20:06:14.312Z,35.00
2022-12-18T20:08:41.159Z,32.53
2022-12-18T20:11:08.137Z,34.53
2022-12-18T20:13:36.125Z,39.27
2022-12-18T20:16:09.131Z,32.23
2022-12-18T20:18:36.008Z,39.10
2022-12-18T20:21:13.864Z,26.80
2022-12-18T20:23:41.117Z,36.00
2022-12-18T20:26:08.719Z,32.90
2022-12-18T20:28:45.218Z,29.40
2022-12-18T20:31:13.541Z,41.77
2022-12-18T20:33:43.123Z,31.13
2022-12-18T20:36:16.672Z,39.20
2022-12-18T20:38:48.765Z,27.97
2022-12-18T20:41:20.696Z,34.93
2022-12-18T20:43:48.509Z,36.17
2022-12-18T20:46:18.377Z,29.50
2022-12-18T20:48:47.841Z,35.93
2022-12-18T20:51:17.389Z,37.50
2022-12-18T20:53:45.592Z,32.93
2022-12-18T20:56:21.239Z,33.70
2022-12-18T20:58:55.320Z,30.30
2022-12-18T21:01:23.438Z,33.20
2022-12-18T21:03:50.930Z,34.43
2022-12-18T21:06:19.719Z,33.20
2022-12-18T21:08:50.625Z,34.37
2022-12-18T21:11:38.612Z,32.93
2022-12-18T21:14:28.854Z,33.60
2022-12-18T21:16:56.583Z,29.00
2022-12-18T21:19:25.773Z,30.60
2022-12-18T21:21:52.981Z,37.90
2022-12-18T21:24:19.776Z,31.70
2022-12-18T21:26:49.263Z,39.53
2022-12-18T21:29:19.362Z,43.23
2022-12-18T21:31:46.760Z,38.23
2022-12-18T21:34:29.911Z,35.33
2022-12-18T21:36:58.245Z,39.20
2022-12-18T21:39:26.386Z,36.57
2022-12-18T21:42:11.653Z,31.87
2022-12-18T21:44:42.003Z,39.13
2022-12-18T21:47:22.188Z,34.87
2022-12-18T21:49:50.675Z,37.90
2022-12-18T21:52:17.318Z,28.83
2022-12-18T21:54:44.037Z,37.97
2022-12-18T21:57:13.177Z,40.60
2022-12-18T21:59:41.386Z,30.63
2022-12-18T22:02:15.714Z,32.03
2022-12-18T22:04:43.426Z,32.83
2022-12-18T22:07:10.887Z,34.17
2022-12-18T22:09:37.999Z,35.60
2022-12-18T22:12:04.976Z,33.13
2022-12-18T22:14:31.703Z,36.70
2022-12-18T22:16:58.657Z,30.10
2022-12-18T22:19:26.761Z,39.30
2022-12-18T22:21:54.050Z,33.73
2022-12-18T22:24:25.652Z,38.80
2022-12-18T22:26:54.294Z,30.87
2022-12-18T22:29:46.605Z,32.47
2022-12-18T22:32:16.771Z,37.83
2022-12-18T22:34:46.677Z,32.80
2022-12-18T22:37:13.748Z,36.27
2022-12-18T22:39:40.374Z,37.77
2022-12-18T22:42:07.616Z,34.93
2022-12-18T22:44:34.194Z,35.47
2022-12-18T22:47:06.469Z,35.73
2022-12-18T22:49:35.673Z,33.67
2022-12-18T22:52:04.227Z,34.53
2022-12-18T22:54:30.815Z,29.70
2022-12-18T22:56:57.536Z,31.10
2022-12-18T22:59:24.402Z,29.20
2022-12-18T23:01:54.927Z,35.17
2022-12-18T23:04:30.159Z,33.33
2022-12-18T23:07:04.490Z,35.37
2022-12-18T23:09:31.114Z,33.40
2022-12-18T23:11:57.696Z,36.07
2022-12-18T23:14:24.290Z,32.80
2022-12-18T23:16:50.822Z,32.33
2022-12-18T23:19:19.916Z,35.97
2022-12-18T23:21:46.806Z,37.43
2022-12-18T23:24:13.509Z,39.63
2022-12-18T23:26:40.374Z,41.40
2022-12-18T23:29:07.378Z,34.83
2022-12-18T23:31:36.227Z,35.77
2022-12-18T23:34:04.984Z,35.57
2022-12-18T23:36:33.104Z,41.67
2022-12-18T23:39:12.617Z,43.73
2022-12-18T23:41:54.083Z,36.87
2022-12-18T23:44:20.627Z,33.10
2022-12-18T23:46:47.172Z,31.40
2022-12-18T23:49:13.920Z,38.20
2022-12-18T23:51:40.463Z,35.83
2022-12-18T23:54:06.983Z,36.97
2022-12-18T23:56:35.614Z,36.17
2022-12-18T23:59:02.195Z,36.10
